Time;durP1;ratioP1;P1;durP2;ratioP2;P2;SDS_P1;SDS_P2;PMS_P1;PMS_P2;Temp;Humidity;BMP_temperature;BMP_pressure;BME280_temperature;BME280_humidity;BME280_pressure;Samples;Min_cycle;Max_cycle;Signal;HPM_P1;HPM_P2
2021/08/20 00:00:08;;;;;;;6.93;3.90;;;17.50;93.10;;;;;;5011262;28;20030;-68
2021/08/20 00:02:34;;;;;;;4.75;3.60;;;17.50;93.10;;;;;;5011468;28;20030;-68
2021/08/20 00:05:00;;;;;;;4.95;3.85;;;17.50;93.10;;;;;;5010736;28;20037;-69
2021/08/20 00:07:25;;;;;;;5.10;3.75;;;17.50;93.20;;;;;;5013127;28;20037;-68
2021/08/20 00:09:55;;;;;;;4.80;4.22;;;17.50;93.10;;;;;;5019940;28;20111;-69
2021/08/20 00:12:21;;;;;;;7.68;4.28;;;17.40;93.10;;;;;;5022821;28;20125;-69
2021/08/20 00:14:46;;;;;;;5.13;4.22;;;17.50;93.20;;;;;;5010438;28;20045;-69
2021/08/20 00:17:12;;;;;;;7.38;4.72;;;17.40;93.20;;;;;;5008487;28;20129;-68
2021/08/20 00:19:38;;;;;;;8.55;4.65;;;17.40;93.20;;;;;;5010858;28;20534;-69
2021/08/20 00:22:05;;;;;;;5.97;4.10;;;17.40;93.30;;;;;;5011421;28;20108;-68
2021/08/20 00:24:32;;;;;;;6.60;4.28;;;17.40;93.30;;;;;;5010676;28;20033;-68
2021/08/20 00:26:57;;;;;;;8.25;3.97;;;17.40;93.40;;;;;;5011118;28;20427;-68
2021/08/20 00:29:23;;;;;;;8.00;4.35;;;17.40;93.40;;;;;;5011210;28;20026;-68
2021/08/20 00:31:49;;;;;;;5.72;4.10;;;17.40;93.50;;;;;;5010855;28;20366;-69
2021/08/20 00:34:14;;;;;;;5.10;4.10;;;17.40;93.50;;;;;;5011576;28;20084;-68
2021/08/20 00:36:40;;;;;;;5.90;4.40;;;17.40;93.50;;;;;;5009110;28;20048;-68
2021/08/20 00:39:06;;;;;;;4.78;3.72;;;17.50;93.60;;;;;;5010888;28;20486;-69
2021/08/20 00:41:32;;;;;;;7.95;3.95;;;17.50;93.50;;;;;;5030645;28;20437;-69
2021/08/20 00:43:59;;;;;;;5.20;3.83;;;17.50;93.60;;;;;;5007569;28;20383;-68
2021/08/20 00:46:24;;;;;;;4.18;3.60;;;17.50;93.50;;;;;;5008481;28;20096;-68
2021/08/20 00:48:50;;;;;;;4.63;3.60;;;17.50;93.50;;;;;;5011350;28;20021;-68
2021/08/20 00:51:20;;;;;;;4.65;4.13;;;17.60;93.60;;;;;;5010925;28;20033;-68
2021/08/20 00:53:47;;;;;;;7.40;4.68;;;17.60;93.60;;;;;;5010545;28;20025;-68
2021/08/20 00:56:13;;;;;;;8.70;5.15;;;17.50;93.50;;;;;;5003468;28;20034;-68
2021/08/20 00:58:40;;;;;;;8.70;6.03;;;17.50;93.50;;;;;;5010589;28;20482;-68
2021/08/20 01:01:07;;;;;;;11.15;6.72;;;17.50;93.80;;;;;;5010654;28;20056;-68
2021/08/20 01:03:34;;;;;;;8.90;6.10;;;17.50;93.50;;;;;;4992659;28;20040;-69
2021/08/20 01:06:01;;;;;;;6.65;5.40;;;17.50;93.50;;;;;;4992255;28;20030;-68
2021/08/20 01:08:28;;;;;;;8.07;6.10;;;17.40;93.50;;;;;;5009973;28;20069;-68
2021/08/20 01:10:58;;;;;;;11.63;6.28;;;17.40;93.60;;;;;;5010380;28;20514;-68
2021/08/20 01:13:25;;;;;;;10.65;6.18;;;17.40;93.60;;;;;;4992439;28;20037;-68
2021/08/20 01:15:54;;;;;;;7.55;5.65;;;17.40;93.60;;;;;;5009829;28;20026;-68
2021/08/20 01:18:23;;;;;;;7.65;5.82;;;17.30;93.60;;;;;;5005451;28;20018;-68
2021/08/20 01:20:50;;;;;;;9.82;5.65;;;17.30;93.70;;;;;;5010064;28;20088;-69
2021/08/20 01:23:17;;;;;;;11.45;6.10;;;17.30;93.60;;;;;;5009694;28;20049;-68
2021/08/20 01:25:45;;;;;;;12.68;6.43;;;17.30;93.70;;;;;;5008828;28;20017;-68
2021/08/20 01:28:10;;;;;;;6.93;5.60;;;17.30;93.80;;;;;;5009586;28;20091;-68
2021/08/20 01:30:36;;;;;;;9.23;5.88;;;17.30;93.70;;;;;;5010223;28;20026;-68
2021/08/20 01:33:03;;;;;;;9.80;5.93;;;17.30;93.80;;;;;;5010436;28;20478;-68
2021/08/20 01:35:29;;;;;;;10.52;5.85;;;17.30;93.90;;;;;;5008599;28;20040;-68
2021/08/20 01:37:54;;;;;;;10.88;7.25;;;17.30;93.90;;;;;;4991837;28;20018;-69
2021/08/20 01:40:20;;;;;;;11.60;7.45;;;17.30;93.90;;;;;;5009783;28;20034;-68
2021/08/20 01:42:46;;;;;;;10.07;7.22;;;17.30;93.90;;;;;;5010070;28;20029;-68
2021/08/20 01:45:11;;;;;;;9.43;6.50;;;17.30;93.90;;;;;;5009173;28;20505;-69
2021/08/20 01:47:37;;;;;;;11.80;7.32;;;17.30;94.00;;;;;;5009883;28;20022;-69
2021/08/20 01:50:05;;;;;;;11.55;7.68;;;17.30;94.00;;;;;;5010262;28;20029;-68
2021/08/20 01:52:31;;;;;;;10.60;7.60;;;17.30;94.00;;;;;;5008938;28;20121;-68
2021/08/20 01:54:57;;;;;;;9.85;7.20;;;17.30;94.00;;;;;;5008864;28;20481;-69
2021/08/20 01:57:22;;;;;;;10.88;7.15;;;17.20;93.90;;;;;;4992110;28;20064;-68
2021/08/20 01:59:48;;;;;;;8.93;6.50;;;17.20;93.90;;;;;;5010062;28;20382;-68
2021/08/20 02:02:14;;;;;;;10.55;7.30;;;17.20;94.00;;;;;;5009280;28;20037;-68
2021/08/20 02:04:40;;;;;;;9.82;6.97;;;17.20;94.10;;;;;;5009217;28;20062;-68
2021/08/20 02:07:06;;;;;;;11.65;6.72;;;17.20;94.10;;;;;;4990881;23;20579;-65
2021/08/20 02:09:31;;;;;;;11.95;7.30;;;17.20;94.10;;;;;;4951935;28;20035;-65
2021/08/20 02:11:57;;;;;;;8.93;6.05;;;17.20;94.10;;;;;;4966528;28;20050;-66
2021/08/20 02:14:23;;;;;;;9.88;6.70;;;17.20;94.10;;;;;;4970114;28;20034;-69
2021/08/20 02:16:48;;;;;;;9.20;6.32;;;17.20;94.20;;;;;;4959382;28;20517;-67
2021/08/20 02:19:14;;;;;;;9.65;6.45;;;17.20;94.20;;;;;;4951968;28;20035;-67
2021/08/20 02:21:40;;;;;;;9.10;5.72;;;17.20;94.10;;;;;;4951485;29;20030;-66
2021/08/20 02:24:06;;;;;;;8.00;5.88;;;17.20;94.20;;;;;;4952402;29;20031;-66
2021/08/20 02:26:32;;;;;;;6.95;5.72;;;17.20;94.20;;;;;;4950600;29;20519;-66
2021/08/20 02:28:57;;;;;;;7.97;6.35;;;17.20;94.20;;;;;;4951885;29;20035;-66
2021/08/20 02:31:23;;;;;;;10.65;6.78;;;17.20;94.20;;;;;;4951545;29;20035;-66
2021/08/20 02:33:49;;;;;;;7.80;5.45;;;17.20;94.20;;;;;;4952045;29;20035;-67
2021/08/20 02:36:15;;;;;;;10.23;5.72;;;17.20;94.20;;;;;;4966493;28;20064;-66
2021/08/20 02:38:41;;;;;;;12.52;5.75;;;17.20;94.20;;;;;;4956278;28;20633;-66
2021/08/20 02:41:07;;;;;;;7.70;6.00;;;17.20;94.20;;;;;;4949825;28;20031;-66
2021/08/20 02:43:33;;;;;;;7.35;4.90;;;17.10;94.20;;;;;;4950687;29;20078;-66
2021/08/20 02:45:59;;;;;;;6.57;5.05;;;17.10;94.20;;;;;;4950669;29;20027;-66
2021/08/20 02:48:25;;;;;;;7.32;5.43;;;17.20;94.30;;;;;;4952147;29;20027;-66
2021/08/20 02:50:51;;;;;;;8.52;5.38;;;17.10;94.30;;;;;;4951374;29;20431;-66
2021/08/20 02:53:17;;;;;;;7.25;5.25;;;17.20;94.30;;;;;;4950970;29;20035;-67
2021/08/20 02:55:42;;;;;;;8.07;5.05;;;17.10;94.20;;;;;;4950595;29;20055;-67
2021/08/20 02:58:08;;;;;;;7.57;5.72;;;17.10;94.30;;;;;;4965696;28;20031;-67
2021/08/20 03:00:34;;;;;;;7.00;5.25;;;17.10;94.30;;;;;;4954614;29;20065;-66
2021/08/20 03:03:00;;;;;;;8.38;5.90;;;17.10;94.30;;;;;;4954876;29;20027;-66
2021/08/20 03:05:25;;;;;;;8.15;4.93;;;17.10;94.30;;;;;;4954368;29;20151;-67
2021/08/20 03:07:51;;;;;;;7.40;5.45;;;17.10;94.30;;;;;;4959333;28;20232;-66
2021/08/20 03:10:18;;;;;;;9.45;5.03;;;17.00;94.40;;;;;;4953889;28;20146;-66
2021/08/20 03:12:43;;;;;;;9.48;5.43;;;17.00;94.40;;;;;;4952482;28;20053;-67
2021/08/20 03:15:10;;;;;;;6.28;5.03;;;17.00;94.70;;;;;;4952522;29;20443;-67
2021/08/20 03:17:36;;;;;;;7.63;5.22;;;17.00;94.50;;;;;;4953356;29;20098;-67
2021/08/20 03:20:02;;;;;;;7.72;5.13;;;17.00;94.40;;;;;;4954936;28;20057;-67
2021/08/20 03:22:27;;;;;;;5.07;4.20;;;17.00;94.50;;;;;;4954272;28;20035;-67
2021/08/20 03:24:53;;;;;;;8.02;5.28;;;17.00;94.50;;;;;;4953433;28;20030;-67
2021/08/20 03:27:19;;;;;;;7.32;5.75;;;17.00;94.50;;;;;;4953731;29;20027;-67
2021/08/20 03:29:44;;;;;;;10.30;5.85;;;17.00;94.50;;;;;;4954662;29;20042;-67
2021/08/20 03:32:10;;;;;;;7.18;5.05;;;17.00;94.50;;;;;;4954933;29;20114;-66
2021/08/20 03:34:36;;;;;;;7.82;5.78;;;17.00;94.50;;;;;;4953590;29;20101;-66
2021/08/20 03:37:01;;;;;;;8.40;5.90;;;16.90;94.50;;;;;;4978346;28;20031;-66
2021/08/20 03:39:27;;;;;;;7.18;5.80;;;16.90;94.50;;;;;;4954260;28;20491;-66
2021/08/20 03:41:53;;;;;;;10.07;6.00;;;16.90;94.50;;;;;;4953967;29;20019;-66
2021/08/20 03:44:18;;;;;;;7.88;5.70;;;16.80;94.60;;;;;;4958293;28;20054;-66
2021/08/20 03:46:44;;;;;;;10.23;5.97;;;16.80;94.60;;;;;;4969885;28;20027;-66
2021/08/20 03:49:10;;;;;;;7.30;5.88;;;16.80;94.60;;;;;;4954738;29;20479;-66
2021/08/20 03:51:35;;;;;;;5.93;5.03;;;16.80;94.70;;;;;;4954111;29;20039;-66
2021/08/20 03:54:01;;;;;;;8.00;5.80;;;16.80;94.70;;;;;;4954005;29;20035;-67
2021/08/20 03:56:26;;;;;;;12.05;5.38;;;16.80;94.70;;;;;;4952985;29;20035;-66
2021/08/20 03:58:58;;;;;;;7.47;5.85;;;16.80;94.70;;;;;;4953142;29;20501;-66
2021/08/20 04:01:24;;;;;;;8.50;6.15;;;16.80;95.00;;;;;;4953711;29;20033;-67
2021/08/20 04:03:49;;;;;;;10.38;5.65;;;16.80;94.70;;;;;;4954135;28;20034;-67
2021/08/20 04:06:15;;;;;;;7.43;5.40;;;16.80;94.70;;;;;;4953308;29;20024;-66
2021/08/20 04:08:41;;;;;;;9.77;5.55;;;16.80;94.70;;;;;;4958742;28;20030;-66
2021/08/20 04:11:10;;;;;;;7.90;5.43;;;16.70;94.70;;;;;;4972317;28;20031;-66
2021/08/20 04:13:37;;;;;;;11.00;5.95;;;16.70;94.80;;;;;;4956827;28;20070;-66
2021/08/20 04:16:02;;;;;;;9.13;5.80;;;16.70;94.80;;;;;;4948364;29;20035;-66
2021/08/20 04:18:28;;;;;;;8.32;5.22;;;16.70;94.90;;;;;;4952614;29;20086;-66
2021/08/20 04:20:54;;;;;;;8.40;4.95;;;16.70;95.00;;;;;;4953475;28;20050;-66
2021/08/20 04:23:19;;;;;;;6.10;5.03;;;16.70;95.00;;;;;;4951932;28;20053;-66
2021/08/20 04:25:45;;;;;;;6.82;4.55;;;16.70;94.90;;;;;;4952915;29;20019;-66
2021/08/20 04:28:10;;;;;;;5.85;4.78;;;16.70;94.90;;;;;;4951908;29;20043;-66
2021/08/20 04:30:36;;;;;;;5.20;4.28;;;16.80;95.00;;;;;;4952924;29;20089;-66
2021/08/20 04:33:03;;;;;;;5.60;4.43;;;16.80;95.00;;;;;;4952196;28;20035;-66
2021/08/20 04:35:29;;;;;;;5.03;4.18;;;16.80;95.00;;;;;;4952383;29;20137;-66
2021/08/20 04:37:54;;;;;;;6.07;4.20;;;16.80;95.00;;;;;;4952896;28;20542;-67
2021/08/20 04:40:20;;;;;;;7.25;4.93;;;16.90;95.00;;;;;;4953491;28;20051;-66
2021/08/20 04:42:46;;;;;;;6.75;4.65;;;16.80;94.80;;;;;;4953271;28;20028;-66
2021/08/20 04:45:14;;;;;;;5.00;4.38;;;16.80;94.80;;;;;;4968391;28;20101;-66
2021/08/20 04:47:39;;;;;;;7.43;4.90;;;16.80;94.80;;;;;;4951817;29;20078;-66
2021/08/20 04:50:05;;;;;;;7.05;4.60;;;16.80;94.80;;;;;;4953287;29;20027;-66
2021/08/20 04:52:31;;;;;;;5.90;4.65;;;16.80;94.80;;;;;;4952821;29;20035;-66
2021/08/20 04:54:57;;;;;;;7.80;4.97;;;16.70;94.80;;;;;;4952072;29;20535;-66
2021/08/20 04:57:22;;;;;;;5.70;4.50;;;16.80;94.90;;;;;;4952536;29;20035;-66
2021/08/20 04:59:48;;;;;;;9.20;4.75;;;16.70;94.80;;;;;;4952751;29;20066;-66
2021/08/20 05:02:13;;;;;;;5.45;4.65;;;16.70;94.90;;;;;;4953114;29;20141;-66
2021/08/20 05:04:39;;;;;;;7.35;5.65;;;16.70;94.90;;;;;;4965784;28;20188;-66
2021/08/20 05:07:05;;;;;;;6.32;4.82;;;16.70;95.00;;;;;;4953025;28;20038;-66
2021/08/20 05:09:34;;;;;;;7.07;4.95;;;16.80;95.00;;;;;;4962932;28;20618;-66
2021/08/20 05:12:00;;;;;;;6.70;4.50;;;16.80;95.00;;;;;;4966548;28;20035;-66
2021/08/20 05:14:27;;;;;;;7.05;4.50;;;16.80;95.00;;;;;;4945571;29;20039;-66
2021/08/20 05:16:52;;;;;;;7.40;4.80;;;16.80;95.00;;;;;;4949576;29;20397;-66
2021/08/20 05:19:18;;;;;;;7.25;4.45;;;16.90;95.00;;;;;;4951878;28;20033;-66
2021/08/20 05:21:44;;;;;;;7.88;5.18;;;16.80;95.00;;;;;;4952263;28;20102;-66
2021/08/20 05:24:10;;;;;;;7.28;5.28;;;16.80;95.00;;;;;;4952542;28;20027;-66
2021/08/20 05:26:35;;;;;;;5.45;4.03;;;16.90;94.90;;;;;;4949210;28;20484;-66
2021/08/20 05:29:01;;;;;;;7.70;4.82;;;16.90;95.00;;;;;;4952382;29;20030;-66
2021/08/20 05:31:27;;;;;;;8.18;4.32;;;16.80;94.90;;;;;;4952407;29;20503;-66
2021/08/20 05:33:52;;;;;;;6.05;4.07;;;16.80;95.00;;;;;;4952438;29;20034;-66
2021/08/20 05:36:18;;;;;;;5.93;4.50;;;16.90;95.00;;;;;;4950569;29;20038;-68
2021/08/20 05:38:43;;;;;;;5.90;4.00;;;16.90;94.90;;;;;;4954157;28;20026;-66
2021/08/20 05:41:09;;;;;;;6.43;4.38;;;16.80;94.90;;;;;;4951264;28;20027;-66
2021/08/20 05:43:35;;;;;;;9.45;4.65;;;16.80;94.90;;;;;;4951056;29;20073;-66
2021/08/20 05:46:01;;;;;;;6.13;5.10;;;16.80;94.90;;;;;;4950737;29;20038;-65
2021/08/20 05:48:27;;;;;;;4.88;4.30;;;16.80;94.80;;;;;;4951703;29;20039;-66
2021/08/20 05:50:52;;;;;;;7.22;4.05;;;16.80;94.80;;;;;;4951490;29;20046;-66
2021/08/20 05:53:18;;;;;;;7.70;3.90;;;16.90;94.90;;;;;;4969675;28;20077;-66
2021/08/20 05:55:44;;;;;;;5.40;4.05;;;16.80;94.80;;;;;;4950896;29;20023;-66
2021/08/20 05:58:09;;;;;;;7.55;4.65;;;16.80;94.70;;;;;;4951456;29;20112;-66
2021/08/20 06:00:35;;;;;;;8.20;3.78;;;16.80;94.70;;;;;;4951437;29;20023;-65
2021/08/20 06:03:01;;;;;;;5.20;3.67;;;16.80;94.70;;;;;;4952142;29;20031;-66
2021/08/20 06:05:27;;;;;;;6.18;4.03;;;16.80;94.70;;;;;;4951184;29;20034;-65
2021/08/20 06:07:53;;;;;;;6.72;3.83;;;16.80;94.70;;;;;;4950347;28;20163;-66
2021/08/20 06:10:19;;;;;;;5.43;3.90;;;16.80;94.80;;;;;;4952300;28;20046;-66
2021/08/20 06:12:45;;;;;;;4.80;3.70;;;16.80;94.70;;;;;;4951783;28;20027;-65
2021/08/20 06:15:11;;;;;;;8.32;5.00;;;16.80;94.70;;;;;;4944771;29;20054;-65
2021/08/20 06:17:37;;;;;;;7.72;4.13;;;16.90;94.70;;;;;;4943744;29;20031;-66
2021/08/20 06:20:04;;;;;;;6.28;4.20;;;16.90;94.60;;;;;;4951834;28;20161;-66
2021/08/20 06:22:30;;;;;;;4.75;4.10;;;16.90;94.60;;;;;;4950115;28;20467;-66
2021/08/20 06:24:56;;;;;;;6.47;4.78;;;16.90;94.60;;;;;;4951125;28;20035;-65
2021/08/20 06:27:21;;;;;;;5.70;5.03;;;16.90;94.60;;;;;;4951800;29;20041;-66
2021/08/20 06:29:47;;;;;;;5.57;4.63;;;16.90;94.60;;;;;;4952119;29;20065;-66
2021/08/20 06:32:12;;;;;;;7.82;4.85;;;16.90;94.80;;;;;;4952042;29;20031;-66
2021/08/20 06:34:39;;;;;;;7.55;4.82;;;16.80;94.60;;;;;;4952833;28;20054;-66
2021/08/20 06:37:05;;;;;;;8.50;5.50;;;16.90;94.60;;;;;;4958715;28;20041;-66
2021/08/20 06:39:30;;;;;;;6.95;4.90;;;16.90;94.60;;;;;;4955959;28;20487;-66
2021/08/20 06:41:56;;;;;;;5.82;5.07;;;16.90;94.70;;;;;;4954840;28;20062;-66
2021/08/20 06:44:22;;;;;;;7.63;5.18;;;16.90;94.80;;;;;;4955482;29;20090;-66
2021/08/20 06:46:48;;;;;;;8.38;5.03;;;16.90;94.70;;;;;;4954263;28;20078;-66
2021/08/20 06:49:13;;;;;;;7.53;5.57;;;16.90;94.70;;;;;;4955556;29;20035;-65
2021/08/20 06:51:39;;;;;;;9.05;5.43;;;16.90;94.70;;;;;;4955616;29;20038;-66
2021/08/20 06:54:05;;;;;;;6.75;5.10;;;16.90;94.80;;;;;;4955312;29;20086;-66
2021/08/20 06:56:30;;;;;;;6.82;5.40;;;16.90;94.80;;;;;;4954308;29;20027;-66
2021/08/20 06:58:57;;;;;;;6.32;5.13;;;16.90;94.80;;;;;;4955011;29;20035;-66
2021/08/20 07:01:24;;;;;;;7.20;5.13;;;17.00;94.80;;;;;;4954592;29;20384;-66
2021/08/20 07:03:50;;;;;;;9.00;5.75;;;17.00;94.70;;;;;;4954228;29;20130;-66
2021/08/20 07:06:22;;;;;;;8.30;5.38;;;17.00;94.70;;;;;;4954019;29;20058;-66
2021/08/20 07:08:49;;;;;;;7.20;4.95;;;17.00;94.70;;;;;;4957459;28;20046;-66
2021/08/20 07:11:19;;;;;;;5.78;4.93;;;17.10;94.70;;;;;;4954608;28;20023;-66
2021/08/20 07:13:45;;;;;;;9.27;4.72;;;17.10;94.70;;;;;;4952019;29;20380;-66
2021/08/20 07:16:10;;;;;;;8.20;4.75;;;17.10;94.70;;;;;;4950730;29;20024;-66
2021/08/20 07:18:36;;;;;;;6.30;4.88;;;17.20;94.70;;;;;;4954692;28;20478;-66
2021/08/20 07:21:04;;;;;;;5.18;4.10;;;17.30;94.70;;;;;;4954815;28;20027;-66
2021/08/20 07:23:30;;;;;;;5.97;4.50;;;17.30;94.60;;;;;;4953242;28;20107;-66
2021/08/20 07:25:58;;;;;;;5.05;4.22;;;17.40;94.60;;;;;;4954549;28;20451;-66
2021/08/20 07:28:23;;;;;;;5.28;3.80;;;17.50;94.50;;;;;;4954067;28;20476;-66
2021/08/20 07:30:49;;;;;;;4.88;3.90;;;17.50;94.40;;;;;;4955030;29;20043;-66
2021/08/20 07:33:14;;;;;;;5.50;3.63;;;17.60;94.40;;;;;;4954518;29;20484;-66
2021/08/20 07:35:40;;;;;;;10.40;4.57;;;17.70;94.30;;;;;;4953715;29;20031;-66
2021/08/20 07:38:05;;;;;;;6.15;4.38;;;17.80;94.10;;;;;;4959032;28;20547;-66
2021/08/20 07:40:31;;;;;;;8.75;3.58;;;17.90;94.00;;;;;;4954521;28;20023;-66
2021/08/20 07:42:56;;;;;;;3.30;2.85;;;18.30;93.70;;;;;;4954089;28;20488;-66
2021/08/20 07:45:22;;;;;;;6.35;3.15;;;19.10;92.90;;;;;;4952970;28;20035;-66
2021/08/20 07:47:52;;;;;;;6.03;2.92;;;19.60;92.30;;;;;;4969293;28;20027;-66
2021/08/20 07:50:18;;;;;;;5.10;2.70;;;20.20;91.80;;;;;;4954763;29;20057;-66
2021/08/20 07:52:45;;;;;;;4.70;3.13;;;20.70;91.40;;;;;;4952949;29;20024;-66
2021/08/20 07:55:11;;;;;;;4.72;3.25;;;21.20;90.70;;;;;;4952401;29;20027;-66
2021/08/20 07:57:45;;;;;;;4.93;3.22;;;21.60;89.80;;;;;;4952470;29;20035;-66
2021/08/20 08:00:11;;;;;;;5.68;3.33;;;22.00;88.30;;;;;;4952805;29;20158;-66
2021/08/20 08:02:37;;;;;;;4.90;3.55;;;22.40;87.90;;;;;;4953326;29;20106;-66
2021/08/20 08:05:03;;;;;;;6.18;3.28;;;22.80;86.60;;;;;;4951530;29;20572;-66
2021/08/20 08:07:28;;;;;;;3.22;2.90;;;23.00;85.60;;;;;;4988013;23;20043;-94
2021/08/20 08:09:54;;;;;;;6.57;3.25;;;23.10;84.90;;;;;;4951690;28;20136;-93
2021/08/20 08:12:22;;;;;;;4.45;3.35;;;23.40;83.80;;;;;;4953774;28;20035;-91
2021/08/20 08:14:48;;;;;;;5.03;2.75;;;23.80;83.30;;;;;;4953330;28;20118;-92
2021/08/20 08:17:13;;;;;;;5.53;3.88;;;24.00;82.40;;;;;;4949528;28;20043;-90
2021/08/20 08:19:39;;;;;;;6.03;3.35;;;24.30;81.90;;;;;;4954242;28;20028;-92
2021/08/20 08:22:05;;;;;;;5.47;3.58;;;24.40;81.70;;;;;;4938699;28;20031;-92
2021/08/20 08:24:30;;;;;;;5.00;3.67;;;24.30;81.90;;;;;;4937439;28;20070;-91
2021/08/20 08:26:56;;;;;;;5.00;3.70;;;24.80;80.70;;;;;;4937053;29;20027;-92
2021/08/20 08:29:22;;;;;;;4.68;3.88;;;24.90;79.80;;;;;;4937952;28;20034;-92
2021/08/20 08:31:47;;;;;;;6.05;3.35;;;24.50;78.60;;;;;;4937984;28;20031;-92
2021/08/20 08:34:13;;;;;;;6.15;3.20;;;24.10;80.30;;;;;;4937437;28;20048;-91
2021/08/20 08:36:39;;;;;;;17.17;14.00;;;23.70;81.30;;;;;;4936030;28;20042;-91
2021/08/20 08:39:05;;;;;;;6.03;4.22;;;23.20;82.70;;;;;;4936167;28;20126;-91
2021/08/20 08:41:34;;;;;;;5.72;3.83;;;23.20;83.20;;;;;;4953112;29;20031;-92
2021/08/20 08:44:00;;;;;;;8.00;3.92;;;23.20;82.10;;;;;;4936742;28;20055;-92
2021/08/20 08:46:27;;;;;;;5.10;3.40;;;23.90;80.10;;;;;;4936670;28;20079;-91
2021/08/20 08:48:53;;;;;;;3.55;3.20;;;24.70;78.40;;;;;;4937440;29;20019;-92
2021/08/20 08:51:20;;;;;;;7.38;2.97;;;24.60;78.70;;;;;;4936218;28;20031;-92
2021/08/20 08:53:46;;;;;;;4.20;3.20;;;24.00;79.80;;;;;;4937930;29;20042;-91
2021/08/20 08:56:17;;;;;;;3.95;3.40;;;23.60;80.60;;;;;;4937740;28;20612;-91
2021/08/20 08:58:43;;;;;;;3.20;2.90;;;23.40;80.50;;;;;;4935206;28;20036;-92
2021/08/20 09:01:30;;;;;;;4.05;3.15;;;24.00;80.10;;;;;;4936241;28;20034;-92
2021/08/20 09:04:16;;;;;;;4.00;2.83;;;24.50;79.10;;;;;;4946905;28;20087;-91
2021/08/20 09:06:55;;;;;;;6.45;3.95;;;24.10;78.60;;;;;;4917096;29;20449;-91
2021/08/20 09:09:24;;;;;;;4.78;3.30;;;23.70;78.80;;;;;;4944286;29;20039;-91
2021/08/20 09:12:01;;;;;;;5.28;3.80;;;23.30;80.10;;;;;;4935041;29;20103;-92
2021/08/20 09:14:35;;;;;;;6.03;4.13;;;22.90;80.70;;;;;;4918845;29;20039;-91
2021/08/20 09:17:01;;;;;;;8.63;4.07;;;22.60;80.90;;;;;;4926038;29;20047;-91
2021/08/20 09:19:28;;;;;;;7.53;4.07;;;22.50;81.60;;;;;;4932204;29;20055;-92
2021/08/20 09:21:56;;;;;;;6.63;4.00;;;22.50;81.10;;;;;;4931860;28;20027;-92
2021/08/20 09:24:43;;;;;;;4.70;3.22;;;22.70;81.30;;;;;;4924922;29;20078;-91
2021/08/20 09:27:15;;;;;;;5.70;3.80;;;23.00;81.30;;;;;;4935321;28;20519;-91
2021/08/20 09:30:01;;;;;;;4.30;3.50;;;23.30;80.70;;;;;;4931713;28;20032;-92
2021/08/20 09:32:27;;;;;;;4.35;3.55;;;23.40;81.00;;;;;;4916657;29;20508;-92
2021/08/20 09:34:57;;;;;;;4.63;3.35;;;23.40;79.80;;;;;;4927860;29;20364;-91
2021/08/20 09:37:24;;;;;;;4.95;3.53;;;23.30;80.00;;;;;;4936246;29;20463;-91
2021/08/20 09:39:52;;;;;;;7.25;3.35;;;23.10;79.70;;;;;;4953968;28;20456;-91
2021/08/20 09:42:19;;;;;;;4.15;3.40;;;22.90;79.40;;;;;;4944351;28;20024;-91
2021/08/20 09:44:45;;;;;;;3.63;3.33;;;22.60;79.70;;;;;;4915362;29;20485;-92
2021/08/20 09:47:11;;;;;;;3.50;3.05;;;22.50;80.10;;;;;;4922773;29;20520;-92
2021/08/20 09:49:57;;;;;;;4.20;3.38;;;22.70;80.20;;;;;;4931023;29;20035;-92
2021/08/20 09:52:30;;;;;;;5.57;3.30;;;23.20;80.40;;;;;;4935170;29;20027;-91
2021/08/20 09:54:56;;;;;;;4.93;3.58;;;23.80;79.60;;;;;;4934212;29;20074;-92
2021/08/20 09:57:26;;;;;;;3.42;3.08;;;24.30;79.70;;;;;;4934349;28;20024;-92
2021/08/20 09:59:56;;;;;;;5.25;3.22;;;24.70;79.50;;;;;;4934675;29;20027;-92
2021/08/20 10:02:28;;;;;;;4.47;2.85;;;25.10;78.80;;;;;;4939677;28;21482;-92
2021/08/20 10:04:55;;;;;;;4.95;3.20;;;25.30;78.10;;;;;;4945944;28;20424;-91
2021/08/20 10:07:22;;;;;;;3.63;2.65;;;25.30;76.30;;;;;;4949197;28;20038;-91
2021/08/20 10:09:48;;;;;;;5.00;3.05;;;25.10;75.90;;;;;;4944332;28;20035;-91
2021/08/20 10:12:32;;;;;;;4.03;2.50;;;24.90;74.40;;;;;;4938341;28;20039;-91
2021/08/20 10:14:58;;;;;;;2.70;2.20;;;24.70;73.20;;;;;;4937728;28;20030;-91
2021/08/20 10:17:25;;;;;;;3.13;2.38;;;24.40;73.30;;;;;;4938126;29;20039;-91
2021/08/20 10:19:50;;;;;;;2.40;2.20;;;24.10;73.30;;;;;;4932175;28;20027;-91
2021/08/20 10:22:18;;;;;;;4.07;2.38;;;23.80;73.40;;;;;;4929894;29;20123;-91
2021/08/20 10:24:43;;;;;;;4.60;2.63;;;23.60;73.30;;;;;;4937305;28;20492;-90
2021/08/20 10:27:10;;;;;;;2.35;1.77;;;23.30;73.10;;;;;;4938191;28;20094;-91
2021/08/20 10:29:47;;;;;;;3.08;2.60;;;23.10;72.80;;;;;;4938096;28;20123;-91
2021/08/20 10:32:15;;;;;;;3.72;2.25;;;22.90;73.00;;;;;;4938225;28;20126;-90
2021/08/20 10:34:42;;;;;;;2.63;2.42;;;22.90;73.20;;;;;;4937279;28;20518;-90
2021/08/20 10:37:18;;;;;;;3.15;2.65;;;23.00;73.60;;;;;;4937814;28;20032;-91
2021/08/20 10:39:46;;;;;;;6.05;2.08;;;23.30;74.10;;;;;;4939013;28;20083;-91
2021/08/20 10:42:17;;;;;;;2.40;2.05;;;23.80;74.80;;;;;;4937867;28;20031;-91
2021/08/20 10:45:07;;;;;;;2.58;2.10;;;24.20;72.90;;;;;;4937420;28;20024;-91
2021/08/20 10:47:33;;;;;;;2.08;1.98;;;24.50;72.20;;;;;;4938850;28;20377;-91
2021/08/20 10:50:10;;;;;;;3.47;1.90;;;24.60;71.20;;;;;;4929498;28;20040;-91
2021/08/20 10:52:39;;;;;;;5.18;2.20;;;24.80;71.20;;;;;;4931582;29;20051;-91
2021/08/20 10:55:14;;;;;;;10.30;4.57;;;24.80;70.80;;;;;;4937760;28;20322;-91
2021/08/20 10:57:42;;;;;;;4.60;2.47;;;24.80;70.20;;;;;;4937663;28;20142;-92
2021/08/20 11:00:22;;;;;;;4.18;2.10;;;24.70;69.80;;;;;;4969572;28;20027;-91
2021/08/20 11:02:54;;;;;;;6.10;2.60;;;24.60;69.40;;;;;;4941946;29;20023;-92
2021/08/20 11:05:35;;;;;;;2.72;2.33;;;24.50;69.30;;;;;;4946993;28;20043;-91
2021/08/20 11:08:01;;;;;;;2.50;2.30;;;24.40;69.20;;;;;;4949558;28;20043;-90
2021/08/20 11:10:26;;;;;;;3.22;1.83;;;24.30;68.90;;;;;;4956672;28;20394;-91
2021/08/20 11:12:55;;;;;;;2.63;1.80;;;24.40;69.10;;;;;;4932154;28;20034;-93
2021/08/20 11:15:26;;;;;;;2.97;1.80;;;24.50;68.90;;;;;;4937591;28;20031;-92
2021/08/20 11:18:04;;;;;;;2.58;1.92;;;24.70;69.10;;;;;;4937153;29;20028;-91
2021/08/20 11:20:51;;;;;;;2.90;1.80;;;25.00;68.50;;;;;;4929784;29;20040;-91
2021/08/20 11:23:20;;;;;;;2.22;1.85;;;25.20;68.20;;;;;;4919886;29;20557;-90
2021/08/20 11:25:50;;;;;;;2.25;1.75;;;25.50;68.30;;;;;;4935646;29;20035;-92
2021/08/20 11:28:24;;;;;;;2.05;1.88;;;25.70;68.00;;;;;;4930379;28;20028;-92
2021/08/20 11:31:08;;;;;;;3.90;1.63;;;25.80;66.50;;;;;;4919319;29;20032;-91
2021/08/20 11:33:55;;;;;;;2.03;1.50;;;25.80;65.50;;;;;;4919534;29;20024;-91
2021/08/20 11:36:27;;;;;;;2.38;1.77;;;25.70;64.50;;;;;;4918620;29;20036;-91
2021/08/20 11:39:11;;;;;;;2.45;1.80;;;25.70;65.10;;;;;;4934997;29;20488;-91
2021/08/20 11:44:08;;;;;;;1.48;1.38;;;25.90;64.90;;;;;;4930943;29;20082;-91
2021/08/20 11:46:52;;;;;;;2.90;1.95;;;26.00;65.00;;;;;;4936429;28;20480;-92
2021/08/20 11:49:28;;;;;;;3.30;1.92;;;26.10;64.20;;;;;;4936332;28;20031;-94
2021/08/20 11:52:08;;;;;;;1.52;1.42;;;26.00;63.10;;;;;;4921672;28;20063;-91
2021/08/20 11:55:03;;;;;;;2.08;1.88;;;25.80;63.00;;;;;;4919731;29;20584;-92
2021/08/20 11:57:38;;;;;;;1.70;1.60;;;25.70;63.60;;;;;;5014284;23;20045;-66
2021/08/20 12:00:04;;;;;;;2.33;1.60;;;25.80;62.80;;;;;;4991878;28;20591;-66
2021/08/20 12:02:29;;;;;;;2.65;2.42;;;25.80;63.40;;;;;;4990044;28;20045;-67
2021/08/20 12:05:17;;;;;;;3.00;1.85;;;25.90;63.40;;;;;;4983563;28;20035;-67
2021/08/20 12:07:43;;;;;;;1.92;1.60;;;26.10;62.80;;;;;;4992295;28;20034;-67
2021/08/20 12:10:10;;;;;;;1.85;1.75;;;26.20;62.30;;;;;;4995905;28;20022;-67
2021/08/20 12:12:41;;;;;;;1.65;1.25;;;26.20;61.30;;;;;;4991984;28;20108;-68
2021/08/20 12:15:07;;;;;;;3.97;1.77;;;26.30;60.90;;;;;;4987337;28;20027;-67
2021/08/20 12:17:34;;;;;;;4.05;1.48;;;26.40;60.80;;;;;;4991483;28;20510;-68
2021/08/20 12:20:15;;;;;;;2.88;2.05;;;26.50;60.90;;;;;;4983061;28;20023;-67
2021/08/20 12:22:47;;;;;;;2.65;2.03;;;26.60;61.00;;;;;;4991474;28;20084;-68
2021/08/20 12:25:17;;;;;;;3.83;2.00;;;26.90;61.50;;;;;;4993476;28;20084;-67
2021/08/20 12:27:45;;;;;;;2.33;1.88;;;27.10;60.40;;;;;;4997394;28;20104;-68
2021/08/20 12:30:13;;;;;;;3.05;2.22;;;27.10;60.10;;;;;;4995009;28;20026;-68
2021/08/20 12:32:42;;;;;;;2.13;1.63;;;27.10;59.60;;;;;;4973096;28;20081;-68
2021/08/20 12:35:16;;;;;;;1.83;1.48;;;27.10;59.10;;;;;;4991214;28;20320;-68
2021/08/20 12:38:15;;;;;;;1.88;1.77;;;27.10;58.90;;;;;;4990954;28;20040;-67
2021/08/20 12:40:55;;;;;;;8.00;1.80;;;27.30;59.80;;;;;;4991772;28;20509;-68
2021/08/20 12:43:39;;;;;;;4.10;1.90;;;27.50;59.10;;;;;;4991481;28;20030;-68
2021/08/20 12:46:18;;;;;;;1.95;1.85;;;27.70;59.10;;;;;;4991188;28;20026;-66
2021/08/20 12:48:53;;;;;;;2.28;1.92;;;27.90;59.10;;;;;;4973768;28;20541;-68
2021/08/20 12:51:18;;;;;;;2.80;1.83;;;28.10;59.20;;;;;;4974238;28;20503;-68